createdAt,value
2019-01-25T00:01:55.910Z,-1.14
2019-01-25T00:04:22.026Z,-1.17
2019-01-25T00:06:48.192Z,-1.22
2019-01-25T00:09:14.328Z,-1.26
2019-01-25T00:11:40.559Z,-1.30
2019-01-25T00:14:06.944Z,-1.33
2019-01-25T00:16:33.075Z,-1.36
2019-01-25T00:18:59.265Z,-1.40
2019-01-25T00:21:25.363Z,-1.41
2019-01-25T00:23:51.666Z,-1.37
2019-01-25T00:26:17.897Z,-1.31
2019-01-25T00:28:44.064Z,-1.23
2019-01-25T00:53:53.393Z,-0.40
2019-01-25T00:56:19.591Z,-0.34
2019-01-25T00:58:45.819Z,-0.30
2019-01-25T01:01:12.072Z,-0.23
2019-01-25T01:03:38.355Z,-0.19
2019-01-25T01:06:04.668Z,-0.17
2019-01-25T01:08:30.881Z,-0.12
2019-01-25T01:10:57.008Z,-0.10
2019-01-25T01:13:23.282Z,-0.07
2019-01-25T01:15:49.540Z,-0.05
2019-01-25T01:18:15.736Z,-0.02
2019-01-25T01:20:41.852Z,0.00
2019-01-25T01:23:08.182Z,0.04
2019-01-25T01:25:34.356Z,0.05
2019-01-25T01:28:00.493Z,0.07
2019-01-25T01:30:26.625Z,0.09
2019-01-25T01:32:53.409Z,0.11
2019-01-25T01:35:19.537Z,0.17
2019-01-25T01:37:45.667Z,0.17
2019-01-25T01:40:21.767Z,0.22
2019-01-25T01:42:44.940Z,0.24
2019-01-25T01:45:11.294Z,0.26
2019-01-25T01:47:37.462Z,0.29
2019-01-25T01:50:12.418Z,0.31
2019-01-25T01:52:38.604Z,0.33
2019-01-25T01:55:04.952Z,0.37
2019-01-25T01:57:31.091Z,0.38
2019-01-25T01:59:57.311Z,0.40
2019-01-25T02:02:23.471Z,0.42
2019-01-25T02:04:49.593Z,0.43
2019-01-25T02:07:15.794Z,0.45
2019-01-25T02:09:41.911Z,0.47
2019-01-25T02:12:08.059Z,0.49
2019-01-25T02:14:34.251Z,0.51
2019-01-25T02:17:00.617Z,0.49
2019-01-25T02:19:26.902Z,0.51
2019-01-25T02:21:53.015Z,0.51
2019-01-25T02:24:19.198Z,0.52
2019-01-25T02:26:45.333Z,0.55
2019-01-25T02:29:11.522Z,0.56
2019-01-25T02:31:37.641Z,0.55
2019-01-25T02:34:03.796Z,0.57
2019-01-25T02:36:29.984Z,0.57
2019-01-25T02:38:56.224Z,0.57
2019-01-25T02:41:22.333Z,0.57
2019-01-25T02:43:48.546Z,0.59
2019-01-25T02:46:14.717Z,0.57
2019-01-25T02:48:40.873Z,0.59
2019-01-25T02:51:07.025Z,0.60
2019-01-25T02:53:33.084Z,0.59
2019-01-25T02:55:59.136Z,0.61
2019-01-25T02:58:25.308Z,0.58
2019-01-25T03:00:51.361Z,0.58
2019-01-25T03:03:17.621Z,0.59
2019-01-25T03:05:43.807Z,0.62
2019-01-25T03:08:09.962Z,0.65
2019-01-25T03:10:36.204Z,0.63
2019-01-25T03:13:02.516Z,0.64
2019-01-25T03:15:28.701Z,0.66
2019-01-25T03:17:54.960Z,0.67
2019-01-25T03:20:21.431Z,0.67
2019-01-25T03:22:47.610Z,0.69
2019-01-25T03:25:21.964Z,0.67
2019-01-25T03:27:48.131Z,0.67
2019-01-25T03:30:19.166Z,0.67
2019-01-25T03:32:45.292Z,0.67
2019-01-25T03:35:13.543Z,0.69
2019-01-25T03:37:39.776Z,0.69
2019-01-25T03:40:12.368Z,0.70
2019-01-25T03:42:38.525Z,0.70
2019-01-25T03:45:07.057Z,0.69
2019-01-25T03:47:33.167Z,0.68
2019-01-25T03:49:59.360Z,0.71
2019-01-25T03:52:25.542Z,0.70
2019-01-25T03:54:51.719Z,0.69
2019-01-25T03:57:17.880Z,0.69
2019-01-25T03:59:44.026Z,0.69
2019-01-25T04:02:10.184Z,0.68
2019-01-25T04:04:36.354Z,0.65
2019-01-25T04:07:02.634Z,0.71
2019-01-25T04:09:28.777Z,0.66
2019-01-25T04:11:54.956Z,0.65
2019-01-25T04:14:21.118Z,0.68
2019-01-25T04:16:47.404Z,0.67
2019-01-25T04:19:13.522Z,0.65
2019-01-25T04:21:39.704Z,0.70
2019-01-25T04:24:07.178Z,0.71
2019-01-25T04:26:33.510Z,0.67
2019-01-25T04:28:59.567Z,0.64
2019-01-25T04:31:25.706Z,0.65
2019-01-25T04:33:51.867Z,0.67
2019-01-25T04:36:18.049Z,0.65
2019-01-25T04:38:44.239Z,0.64
2019-01-25T04:41:11.723Z,0.64
2019-01-25T04:43:38.293Z,0.65
2019-01-25T04:46:04.515Z,0.66
2019-01-25T04:48:30.712Z,0.65
2019-01-25T04:50:56.825Z,0.69
2019-01-25T04:53:23.004Z,0.67
2019-01-25T04:55:49.145Z,0.67
2019-01-25T04:58:15.285Z,0.68
2019-01-25T05:00:41.486Z,0.69
2019-01-25T05:03:07.681Z,0.70
2019-01-25T05:05:33.915Z,0.72
2019-01-25T05:08:05.999Z,0.76
2019-01-25T05:10:32.116Z,0.74
2019-01-25T05:12:58.246Z,0.73
2019-01-25T05:15:24.370Z,0.72
2019-01-25T05:17:52.574Z,0.69
2019-01-25T05:20:18.732Z,0.68
2019-01-25T05:22:50.373Z,0.71
2019-01-25T05:25:21.597Z,0.66
2019-01-25T05:27:47.733Z,0.67
2019-01-25T05:30:13.858Z,0.66
2019-01-25T05:32:39.988Z,0.69
2019-01-25T05:35:06.130Z,0.67
2019-01-25T05:37:32.251Z,0.71
2019-01-25T05:39:58.428Z,0.70
2019-01-25T05:42:24.694Z,0.70
2019-01-25T05:44:50.825Z,0.72
2019-01-25T05:47:16.924Z,0.73
2019-01-25T05:49:43.079Z,0.74
2019-01-25T05:52:16.168Z,0.75
2019-01-25T05:54:42.359Z,0.76
2019-01-25T05:57:08.534Z,0.77
2019-01-25T05:59:34.786Z,0.77
2019-01-25T06:02:01.108Z,0.78
2019-01-25T06:04:36.111Z,0.76
2019-01-25T06:07:02.341Z,0.75
2019-01-25T06:09:28.459Z,0.74
2019-01-25T06:11:54.612Z,0.77
2019-01-25T06:14:20.756Z,0.78
2019-01-25T06:16:46.897Z,0.76
2019-01-25T06:19:13.154Z,0.76
2019-01-25T06:21:39.322Z,0.78
2019-01-25T06:24:05.449Z,0.77
2019-01-25T06:26:31.593Z,0.79
2019-01-25T06:28:57.722Z,0.79
2019-01-25T06:31:23.834Z,0.78
2019-01-25T06:33:50.031Z,0.77
2019-01-25T06:36:16.207Z,0.79
2019-01-25T06:38:42.340Z,0.79
2019-01-25T06:41:08.937Z,0.79
2019-01-25T06:43:35.089Z,0.81
2019-01-25T06:46:01.297Z,0.82
2019-01-25T06:48:27.459Z,0.83
2019-01-25T06:50:53.562Z,0.82
2019-01-25T06:53:19.638Z,0.81
2019-01-25T06:55:45.802Z,0.84
2019-01-25T06:58:25.903Z,0.85
2019-01-25T07:01:02.996Z,0.81
2019-01-25T07:03:29.220Z,0.83
2019-01-25T07:05:55.331Z,0.81
2019-01-25T07:08:21.559Z,0.82
2019-01-25T07:10:47.662Z,0.84
2019-01-25T07:13:13.919Z,0.84
2019-01-25T07:15:40.119Z,0.85
2019-01-25T07:18:06.361Z,0.86
2019-01-25T07:20:32.542Z,0.85
2019-01-25T07:22:58.647Z,0.88
2019-01-25T07:25:24.754Z,0.88
2019-01-25T07:27:50.903Z,0.88
2019-01-25T07:30:17.060Z,0.87
2019-01-25T07:32:43.134Z,0.93
2019-01-25T07:35:09.788Z,0.91
2019-01-25T07:37:36.187Z,0.91
2019-01-25T07:40:04.865Z,0.92
2019-01-25T07:42:31.063Z,0.94
2019-01-25T07:44:57.191Z,0.94
2019-01-25T07:47:23.378Z,0.96
2019-01-25T07:49:49.430Z,0.96
2019-01-25T07:52:15.643Z,1.00
2019-01-25T07:54:41.766Z,1.01
2019-01-25T07:57:07.898Z,1.02
2019-01-25T07:59:34.073Z,1.02
2019-01-25T08:02:00.242Z,1.07
2019-01-25T08:04:26.484Z,1.06
2019-01-25T08:06:52.616Z,1.09
2019-01-25T08:09:18.720Z,1.10
2019-01-25T08:11:44.948Z,1.13
2019-01-25T08:14:12.785Z,1.15
2019-01-25T08:16:39.165Z,1.16
2019-01-25T08:19:05.388Z,1.15
2019-01-25T08:21:31.627Z,1.21
2019-01-25T08:23:57.781Z,1.22
2019-01-25T08:26:23.764Z,1.22
2019-01-25T08:28:49.960Z,1.27
2019-01-25T08:31:16.305Z,1.28
2019-01-25T08:33:42.522Z,1.33
2019-01-25T08:36:08.687Z,1.34
2019-01-25T08:38:34.705Z,1.32
2019-01-25T08:41:00.913Z,1.37
2019-01-25T08:43:27.037Z,1.38
2019-01-25T08:45:53.187Z,1.42
2019-01-25T08:48:20.429Z,1.44
2019-01-25T08:50:46.605Z,1.45
2019-01-25T08:53:12.901Z,1.47
2019-01-25T08:55:39.230Z,1.52
2019-01-25T08:58:05.397Z,1.52
2019-01-25T09:00:31.474Z,1.52
2019-01-25T09:02:57.622Z,1.60
2019-01-25T09:05:23.746Z,1.62
2019-01-25T09:07:49.871Z,1.65
2019-01-25T09:10:18.286Z,1.65
2019-01-25T09:22:55.929Z,1.76
2019-01-25T09:25:22.170Z,1.84
2019-01-25T09:27:48.306Z,1.78
2019-01-25T09:30:20.432Z,1.77
2019-01-25T09:32:46.599Z,1.85
2019-01-25T09:35:13.033Z,1.86
2019-01-25T09:37:39.150Z,1.86
2019-01-25T09:40:09.017Z,1.89
2019-01-25T09:42:35.237Z,1.90
2019-01-25T09:45:01.527Z,1.85
2019-01-25T09:47:27.731Z,1.87
2019-01-25T09:49:53.876Z,1.86
2019-01-25T09:52:20.041Z,1.88
2019-01-25T09:54:46.247Z,1.91
2019-01-25T09:57:12.519Z,1.84
2019-01-25T09:59:38.641Z,1.87
2019-01-25T10:02:04.783Z,1.82
2019-01-25T10:04:30.996Z,1.84
2019-01-25T10:06:57.142Z,1.97
2019-01-25T10:09:23.248Z,1.97
2019-01-25T10:11:49.379Z,2.00
2019-01-25T10:14:15.492Z,1.98
2019-01-25T10:16:41.742Z,2.09
2019-01-25T10:19:07.879Z,2.06
2019-01-25T10:21:34.342Z,2.04
2019-01-25T10:24:00.700Z,2.10
2019-01-25T10:26:26.994Z,2.18
2019-01-25T10:28:53.219Z,2.08
2019-01-25T10:31:19.377Z,2.05
2019-01-25T10:33:45.711Z,2.05
2019-01-25T10:36:11.825Z,2.00
2019-01-25T10:38:37.971Z,2.06
2019-01-25T10:41:04.187Z,2.08
2019-01-25T10:43:30.431Z,2.15
2019-01-25T10:45:56.610Z,2.22
2019-01-25T10:48:22.899Z,2.17
2019-01-25T10:50:49.210Z,2.14
2019-01-25T10:53:15.611Z,2.23
2019-01-25T10:55:41.746Z,2.22
2019-01-25T10:58:08.485Z,2.20
2019-01-25T11:00:34.740Z,2.22
2019-01-25T11:03:00.900Z,2.25
2019-01-25T11:05:27.823Z,2.36
2019-01-25T11:07:53.998Z,2.34
2019-01-25T11:10:20.113Z,2.35
2019-01-25T11:12:46.319Z,2.30
2019-01-25T11:15:16.065Z,2.36
2019-01-25T11:17:42.217Z,2.38
2019-01-25T11:20:14.723Z,2.50
2019-01-25T11:22:40.903Z,2.45
2019-01-25T11:25:10.653Z,2.52
2019-01-25T11:27:36.836Z,2.63
2019-01-25T11:30:06.048Z,2.76
2019-01-25T11:32:32.144Z,2.70
2019-01-25T11:34:58.443Z,2.69
2019-01-25T11:37:24.576Z,2.68
2019-01-25T11:39:50.728Z,2.71
2019-01-25T11:42:17.025Z,2.66
2019-01-25T11:44:43.217Z,2.75
2019-01-25T11:47:09.324Z,2.84
2019-01-25T11:49:35.308Z,2.85
2019-01-25T11:52:01.590Z,2.89
2019-01-25T11:54:27.680Z,2.88
2019-01-25T11:56:53.819Z,2.94
2019-01-25T11:59:19.970Z,3.00
2019-01-25T12:01:46.110Z,3.03
2019-01-25T12:04:12.410Z,3.05
2019-01-25T12:06:38.521Z,3.07
2019-01-25T12:09:06.479Z,2.99
2019-01-25T12:11:32.719Z,3.01
2019-01-25T12:13:58.872Z,2.98
2019-01-25T12:16:25.074Z,3.04
2019-01-25T12:18:51.295Z,3.05
2019-01-25T12:21:17.408Z,2.89
2019-01-25T12:23:43.552Z,2.96
2019-01-25T12:26:09.661Z,3.05
2019-01-25T12:28:35.793Z,3.00
2019-01-25T12:31:01.904Z,3.00
2019-01-25T12:33:28.083Z,2.98
2019-01-25T12:35:54.312Z,2.88
2019-01-25T12:38:20.508Z,2.83
2019-01-25T12:40:46.654Z,2.85
2019-01-25T12:43:12.846Z,2.88
2019-01-25T12:45:38.992Z,2.82
2019-01-25T12:48:05.413Z,2.73
2019-01-25T12:50:40.386Z,2.80
2019-01-25T12:53:08.434Z,2.72
2019-01-25T12:55:34.566Z,2.71
2019-01-25T12:58:00.727Z,2.74
2019-01-25T13:00:28.773Z,2.78
2019-01-25T13:02:54.973Z,2.75
2019-01-25T13:05:21.515Z,2.72
2019-01-25T13:07:47.728Z,2.70
2019-01-25T13:10:22.295Z,2.71
2019-01-25T13:12:49.706Z,2.69
2019-01-25T13:15:16.137Z,2.68
2019-01-25T13:17:42.506Z,2.71
2019-01-25T13:20:17.844Z,2.61
2019-01-25T13:22:43.958Z,2.61
2019-01-25T13:25:10.282Z,2.60
2019-01-25T13:27:36.640Z,2.62
2019-01-25T13:30:06.385Z,2.61
2019-01-25T13:32:32.484Z,2.53
2019-01-25T13:34:58.625Z,2.53
2019-01-25T13:37:24.853Z,2.55
2019-01-25T13:39:51.028Z,2.55
2019-01-25T13:42:17.208Z,2.62
2019-01-25T13:44:43.508Z,2.56
2019-01-25T13:47:09.583Z,2.66
2019-01-25T13:49:35.728Z,2.61
2019-01-25T13:52:01.835Z,2.60
2019-01-25T13:54:28.958Z,2.60
2019-01-25T13:56:55.242Z,2.63
2019-01-25T13:59:21.525Z,2.61
2019-01-25T14:01:47.680Z,2.68
2019-01-25T14:04:14.027Z,2.65
2019-01-25T14:06:40.176Z,2.63
2019-01-25T14:09:07.593Z,2.61
2019-01-25T14:11:33.684Z,2.62
2019-01-25T14:13:59.822Z,2.63
2019-01-25T14:16:26.081Z,2.61
2019-01-25T14:18:52.400Z,2.63
2019-01-25T14:21:18.560Z,2.67
2019-01-25T14:23:44.599Z,2.69
2019-01-25T14:26:10.743Z,2.71
2019-01-25T14:28:36.762Z,2.67
2019-01-25T14:31:03.207Z,2.73
2019-01-25T14:33:31.937Z,2.68
2019-01-25T14:35:58.106Z,2.73
2019-01-25T14:38:24.216Z,2.73
2019-01-25T14:40:50.322Z,2.70
2019-01-25T14:43:16.524Z,2.72
2019-01-25T14:45:42.620Z,2.73
2019-01-25T14:48:08.894Z,2.71
2019-01-25T14:50:35.131Z,2.69
2019-01-25T14:53:01.222Z,2.70
2019-01-25T14:55:27.445Z,2.67
2019-01-25T14:57:53.701Z,2.68
2019-01-25T15:00:19.871Z,2.69
2019-01-25T15:02:46.321Z,2.68
2019-01-25T15:05:15.129Z,2.70
2019-01-25T15:07:41.379Z,2.67
2019-01-25T15:10:11.254Z,2.67
2019-01-25T15:12:37.353Z,2.68
2019-01-25T15:15:07.099Z,2.72
2019-01-25T15:17:33.224Z,2.72
2019-01-25T15:19:59.456Z,2.70
2019-01-25T15:22:25.617Z,2.76
2019-01-25T15:24:51.756Z,2.75
2019-01-25T15:27:17.990Z,2.78
2019-01-25T15:29:44.156Z,2.80
2019-01-25T15:32:10.305Z,2.80
2019-01-25T15:34:36.424Z,2.83
2019-01-25T15:37:02.597Z,2.87
2019-01-25T15:39:28.734Z,2.91
2019-01-25T15:41:55.018Z,2.93
2019-01-25T15:44:21.128Z,2.96
2019-01-25T15:46:47.358Z,2.95
2019-01-25T15:49:13.641Z,3.00
2019-01-25T15:51:39.744Z,3.01
2019-01-25T15:54:05.917Z,3.01
2019-01-25T15:56:32.010Z,3.06
2019-01-25T15:58:59.954Z,3.01
2019-01-25T16:01:26.093Z,3.01
2019-01-25T16:03:52.392Z,3.02
2019-01-25T16:06:18.505Z,3.06
2019-01-25T16:08:44.626Z,3.03
2019-01-25T16:11:10.819Z,3.02
2019-01-25T16:13:36.859Z,3.07
2019-01-25T16:16:03.122Z,3.04
2019-01-25T16:18:29.297Z,3.02
2019-01-25T16:20:55.403Z,3.06
2019-01-25T16:23:21.650Z,3.07
2019-01-25T16:25:47.888Z,3.10
2019-01-25T16:28:14.046Z,3.12
2019-01-25T16:30:40.205Z,3.17
2019-01-25T16:33:06.686Z,3.17
2019-01-25T16:35:32.917Z,3.21
2019-01-25T16:37:59.202Z,3.23
2019-01-25T16:40:29.478Z,3.23
2019-01-25T16:42:55.759Z,3.25
2019-01-25T16:45:24.776Z,3.26
2019-01-25T16:47:51.844Z,3.27
2019-01-25T16:50:23.583Z,3.23
2019-01-25T16:52:46.150Z,3.24
2019-01-25T16:55:14.141Z,3.25
2019-01-25T16:57:40.410Z,3.24
2019-01-25T17:00:13.296Z,3.27
2019-01-25T17:02:39.478Z,3.25
2019-01-25T17:05:07.792Z,3.26
2019-01-25T17:07:34.067Z,3.28
2019-01-25T17:10:00.340Z,3.26
2019-01-25T17:12:26.620Z,3.30
2019-01-25T17:14:52.811Z,3.32
2019-01-25T17:17:18.949Z,3.33
2019-01-25T17:19:45.111Z,3.36
2019-01-25T17:22:11.231Z,3.40
2019-01-25T17:24:37.422Z,3.41
2019-01-25T17:27:03.635Z,3.45
2019-01-25T17:29:29.960Z,3.48
2019-01-25T17:31:56.176Z,3.50
2019-01-25T17:34:22.472Z,3.52
2019-01-25T17:36:48.629Z,3.54
2019-01-25T17:39:14.927Z,3.57
2019-01-25T17:41:41.076Z,3.58
2019-01-25T17:44:07.669Z,3.62
2019-01-25T17:46:34.224Z,3.66
2019-01-25T17:49:00.657Z,3.68
2019-01-25T17:51:27.336Z,3.69
2019-01-25T17:53:53.452Z,3.74
2019-01-25T17:56:19.653Z,3.77
2019-01-25T17:58:45.794Z,3.78
2019-01-25T18:01:12.054Z,3.80
2019-01-25T18:03:38.318Z,3.86
2019-01-25T18:06:04.525Z,3.89
2019-01-25T18:08:30.774Z,3.89
2019-01-25T18:10:57.161Z,3.96
2019-01-25T18:13:23.365Z,3.95
2019-01-25T18:15:49.606Z,4.00
2019-01-25T18:18:15.887Z,3.99
2019-01-25T18:20:43.907Z,3.98
2019-01-25T18:23:10.063Z,4.00
2019-01-25T18:25:44.545Z,3.98
2019-01-25T18:28:16.869Z,4.02
2019-01-25T18:30:55.320Z,4.03
2019-01-25T18:33:21.575Z,4.10
2019-01-25T18:35:47.810Z,4.07
2019-01-25T18:38:13.957Z,4.13
2019-01-25T18:40:41.033Z,4.11
2019-01-25T18:43:07.382Z,4.18
2019-01-25T18:45:33.634Z,4.17
2019-01-25T18:47:59.842Z,4.18
2019-01-25T18:50:26.073Z,4.19
2019-01-25T18:52:52.246Z,4.19
2019-01-25T18:55:21.062Z,4.28
2019-01-25T18:57:47.185Z,4.35
2019-01-25T19:00:16.284Z,4.40
2019-01-25T19:02:42.417Z,4.39
2019-01-25T19:05:09.055Z,4.41
2019-01-25T19:07:35.188Z,4.46
2019-01-25T19:10:05.134Z,4.44
2019-01-25T19:12:31.275Z,4.49
2019-01-25T19:15:04.134Z,4.55
2019-01-25T19:17:25.730Z,4.59
2019-01-25T19:19:51.901Z,4.61
2019-01-25T19:22:18.030Z,4.64
2019-01-25T19:24:47.204Z,4.67
2019-01-25T19:27:13.391Z,4.67
2019-01-25T19:29:39.502Z,4.68
2019-01-25T19:32:05.620Z,4.75
2019-01-25T19:34:31.759Z,4.78
2019-01-25T19:36:57.900Z,4.85
2019-01-25T19:39:24.064Z,4.86
2019-01-25T19:41:50.169Z,4.88
2019-01-25T19:44:16.399Z,4.91
2019-01-25T19:46:42.621Z,4.93
2019-01-25T19:49:08.769Z,4.95
2019-01-25T19:51:35.009Z,4.99
2019-01-25T19:54:01.288Z,5.01
2019-01-25T19:56:27.490Z,5.04
2019-01-25T19:58:53.617Z,5.05
2019-01-25T20:01:19.855Z,5.07
2019-01-25T20:03:45.982Z,5.07
2019-01-25T20:06:12.260Z,5.09
2019-01-25T20:08:38.440Z,5.14
2019-01-25T20:11:04.657Z,5.14
2019-01-25T20:13:30.851Z,5.16
2019-01-25T20:15:57.097Z,5.23
2019-01-25T20:18:23.272Z,5.25
2019-01-25T20:20:49.553Z,5.24
2019-01-25T20:23:15.762Z,5.28
2019-01-25T20:25:41.950Z,5.30
2019-01-25T20:28:08.702Z,5.33
2019-01-25T20:30:34.931Z,5.35
2019-01-25T20:33:03.166Z,5.38
2019-01-25T20:35:35.021Z,5.40
2019-01-25T20:38:01.247Z,5.42
2019-01-25T20:40:27.397Z,5.47
2019-01-25T20:42:53.708Z,5.50
2019-01-25T20:45:27.015Z,5.54
2019-01-25T20:47:50.757Z,5.55
2019-01-25T20:50:19.708Z,5.60
2019-01-25T20:52:45.824Z,5.65
2019-01-25T20:55:14.770Z,5.73
2019-01-25T20:57:41.015Z,5.72
2019-01-25T21:00:13.503Z,5.76
2019-01-25T21:02:39.742Z,5.77
2019-01-25T21:05:06.996Z,5.79
2019-01-25T21:07:33.211Z,5.83
2019-01-25T21:09:59.476Z,5.82
2019-01-25T21:12:25.693Z,5.82
2019-01-25T21:14:51.843Z,5.80
2019-01-25T21:17:18.070Z,5.80
2019-01-25T21:19:44.308Z,5.85
2019-01-25T21:22:10.524Z,5.86
2019-01-25T21:24:36.708Z,5.87
2019-01-25T21:27:02.971Z,5.90
2019-01-25T21:29:29.183Z,5.94
2019-01-25T21:31:55.444Z,5.93
2019-01-25T21:34:21.580Z,5.96
2019-01-25T21:36:47.706Z,5.99
2019-01-25T21:39:13.885Z,6.01
2019-01-25T21:41:40.120Z,6.09
2019-01-25T21:44:06.428Z,6.13
2019-01-25T21:46:39.790Z,6.22
2019-01-25T21:49:00.641Z,6.26
2019-01-25T21:51:26.796Z,6.28
2019-01-25T21:53:52.994Z,6.30
2019-01-25T21:56:19.135Z,6.32
2019-01-25T21:58:45.266Z,6.35
2019-01-25T22:01:11.493Z,6.36
2019-01-25T22:03:37.637Z,6.37
2019-01-25T22:06:04.052Z,6.34
2019-01-25T22:08:30.253Z,6.32
2019-01-25T22:10:56.476Z,6.33
2019-01-25T22:13:22.726Z,6.36
2019-01-25T22:15:51.023Z,6.36
2019-01-25T22:18:17.029Z,6.34
2019-01-25T22:20:43.166Z,6.35
2019-01-25T22:23:09.533Z,6.37
2019-01-25T22:25:35.754Z,6.39
2019-01-25T22:28:01.887Z,6.41
2019-01-25T22:30:28.082Z,6.39
2019-01-25T22:32:54.726Z,6.43
2019-01-25T22:35:20.952Z,6.47
2019-01-25T22:37:47.067Z,6.52
2019-01-25T22:40:21.891Z,6.49
2019-01-25T22:42:48.033Z,6.55
2019-01-25T22:45:16.767Z,6.58
2019-01-25T22:47:42.905Z,6.64
2019-01-25T22:50:17.869Z,6.64
2019-01-25T22:52:44.029Z,6.61
2019-01-25T22:55:13.137Z,6.55
2019-01-25T22:57:39.420Z,6.52
2019-01-25T23:00:11.988Z,6.48
2019-01-25T23:02:38.444Z,6.47
2019-01-25T23:05:23.507Z,6.46
2019-01-25T23:07:49.657Z,6.48
2019-01-25T23:10:15.953Z,6.46
2019-01-25T23:12:42.141Z,6.45
2019-01-25T23:15:08.928Z,6.47
2019-01-25T23:17:35.166Z,6.48
2019-01-25T23:20:01.306Z,6.53
2019-01-25T23:22:27.470Z,6.52
2019-01-25T23:24:53.587Z,6.48
2019-01-25T23:27:19.770Z,6.48
2019-01-25T23:29:46.049Z,6.45
2019-01-25T23:32:12.255Z,6.39
2019-01-25T23:34:38.433Z,6.37
2019-01-25T23:37:04.682Z,6.34
2019-01-25T23:39:30.892Z,6.32
2019-01-25T23:41:57.084Z,6.32
2019-01-25T23:44:23.370Z,6.33
2019-01-25T23:46:49.709Z,6.37
2019-01-25T23:49:15.936Z,6.36
2019-01-25T23:51:42.204Z,6.30
2019-01-25T23:54:08.309Z,6.28
2019-01-25T23:56:34.451Z,6.30
2019-01-25T23:59:00.580Z,6.35
